sensor_id;sensor_type;location;lat;lon;timestamp;P1;durP1;ratioP1;P2;durP2;ratioP2
52738;SDS011;52466;40.122;18.318;2022-09-21T00:02:05;119.30;;;56.80;;
52738;SDS011;52466;40.122;18.318;2022-09-21T00:05:13;119.85;;;56.38;;
52738;SDS011;52466;40.122;18.318;2022-09-21T00:08:21;117.10;;;56.38;;
52738;SDS011;52466;40.122;18.318;2022-09-21T00:11:29;119.60;;;56.75;;
52738;SDS011;52466;40.122;18.318;2022-09-21T00:14:38;117.70;;;56.65;;
52738;SDS011;52466;40.122;18.318;2022-09-21T00:17:45;119.15;;;56.83;;
52738;SDS011;52466;40.122;18.318;2022-09-21T00:20:54;119.35;;;56.83;;
52738;SDS011;52466;40.122;18.318;2022-09-21T00:24:03;118.45;;;56.97;;
52738;SDS011;52466;40.122;18.318;2022-09-21T00:27:11;117.22;;;57.17;;
52738;SDS011;52466;40.122;18.318;2022-09-21T00:30:19;117.13;;;56.88;;
52738;SDS011;52466;40.122;18.318;2022-09-21T00:33:26;118.93;;;57.30;;
52738;SDS011;52466;40.122;18.318;2022-09-21T00:36:34;116.07;;;56.92;;
52738;SDS011;52466;40.122;18.318;2022-09-21T00:39:42;119.03;;;56.83;;
52738;SDS011;52466;40.122;18.318;2022-09-21T00:42:50;119.57;;;57.92;;
52738;SDS011;52466;40.122;18.318;2022-09-21T00:46:02;117.13;;;56.97;;
52738;SDS011;52466;40.122;18.318;2022-09-21T00:49:20;117.18;;;56.95;;
52738;SDS011;52466;40.122;18.318;2022-09-21T00:52:30;115.65;;;56.58;;
52738;SDS011;52466;40.122;18.318;2022-09-21T00:55:45;117.10;;;56.95;;
52738;SDS011;52466;40.122;18.318;2022-09-21T00:58:55;116.05;;;56.47;;
52738;SDS011;52466;40.122;18.318;2022-09-21T01:02:04;115.80;;;56.58;;
52738;SDS011;52466;40.122;18.318;2022-09-21T01:05:32;116.65;;;56.97;;
52738;SDS011;52466;40.122;18.318;2022-09-21T01:08:39;117.25;;;56.95;;
52738;SDS011;52466;40.122;18.318;2022-09-21T01:25:34;119.63;;;57.58;;
52738;SDS011;52466;40.122;18.318;2022-09-21T01:29:19;118.90;;;57.45;;
52738;SDS011;52466;40.122;18.318;2022-09-21T01:33:13;118.00;;;57.55;;
52738;SDS011;52466;40.122;18.318;2022-09-21T01:36:12;118.13;;;57.00;;
52738;SDS011;52466;40.122;18.318;2022-09-21T01:39:23;119.38;;;57.08;;
52738;SDS011;52466;40.122;18.318;2022-09-21T01:42:33;117.40;;;56.92;;
52738;SDS011;52466;40.122;18.318;2022-09-21T01:45:46;117.28;;;56.70;;
52738;SDS011;52466;40.122;18.318;2022-09-21T01:48:58;118.68;;;57.25;;
52738;SDS011;52466;40.122;18.318;2022-09-21T01:55:39;120.53;;;58.08;;
52738;SDS011;52466;40.122;18.318;2022-09-21T02:02:18;116.82;;;56.30;;
52738;SDS011;52466;40.122;18.318;2022-09-21T02:05:49;117.00;;;56.33;;
52738;SDS011;52466;40.122;18.318;2022-09-21T02:08:57;115.03;;;56.33;;
52738;SDS011;52466;40.122;18.318;2022-09-21T02:12:05;117.03;;;56.28;;
52738;SDS011;52466;40.122;18.318;2022-09-21T02:15:13;114.93;;;56.00;;
52738;SDS011;52466;40.122;18.318;2022-09-21T02:28:54;117.15;;;55.88;;
52738;SDS011;52466;40.122;18.318;2022-09-21T02:35:31;116.70;;;56.15;;
52738;SDS011;52466;40.122;18.318;2022-09-21T02:42:22;113.97;;;55.75;;
52738;SDS011;52466;40.122;18.318;2022-09-21T02:45:38;114.68;;;55.70;;
52738;SDS011;52466;40.122;18.318;2022-09-21T02:48:53;114.82;;;55.72;;
52738;SDS011;52466;40.122;18.318;2022-09-21T02:52:12;116.03;;;55.90;;
52738;SDS011;52466;40.122;18.318;2022-09-21T02:55:22;116.40;;;56.22;;
52738;SDS011;52466;40.122;18.318;2022-09-21T02:58:33;114.97;;;55.97;;
52738;SDS011;52466;40.122;18.318;2022-09-21T03:01:44;118.70;;;55.73;;
52738;SDS011;52466;40.122;18.318;2022-09-21T03:04:52;116.07;;;56.17;;
52738;SDS011;52466;40.122;18.318;2022-09-21T03:08:00;115.45;;;55.58;;
52738;SDS011;52466;40.122;18.318;2022-09-21T03:11:08;118.03;;;55.97;;
52738;SDS011;52466;40.122;18.318;2022-09-21T03:14:17;117.35;;;56.22;;
52738;SDS011;52466;40.122;18.318;2022-09-21T03:17:25;117.22;;;56.10;;
52738;SDS011;52466;40.122;18.318;2022-09-21T03:20:34;117.85;;;55.95;;
52738;SDS011;52466;40.122;18.318;2022-09-21T03:23:42;115.75;;;55.95;;
52738;SDS011;52466;40.122;18.318;2022-09-21T03:26:50;115.90;;;56.08;;
52738;SDS011;52466;40.122;18.318;2022-09-21T03:29:58;115.50;;;56.10;;
52738;SDS011;52466;40.122;18.318;2022-09-21T03:33:05;117.20;;;56.15;;
52738;SDS011;52466;40.122;18.318;2022-09-21T03:36:14;115.32;;;56.15;;
52738;SDS011;52466;40.122;18.318;2022-09-21T03:39:21;115.60;;;56.08;;
52738;SDS011;52466;40.122;18.318;2022-09-21T03:42:29;117.32;;;56.22;;
52738;SDS011;52466;40.122;18.318;2022-09-21T03:45:37;117.55;;;56.20;;
52738;SDS011;52466;40.122;18.318;2022-09-21T03:48:48;116.50;;;56.00;;
52738;SDS011;52466;40.122;18.318;2022-09-21T03:51:55;115.60;;;56.00;;
52738;SDS011;52466;40.122;18.318;2022-09-21T03:55:04;115.28;;;55.78;;
52738;SDS011;52466;40.122;18.318;2022-09-21T03:58:14;118.78;;;56.30;;
52738;SDS011;52466;40.122;18.318;2022-09-21T04:01:22;115.65;;;55.92;;
52738;SDS011;52466;40.122;18.318;2022-09-21T04:04:29;116.10;;;56.10;;
52738;SDS011;52466;40.122;18.318;2022-09-21T04:07:37;117.68;;;56.25;;
52738;SDS011;52466;40.122;18.318;2022-09-21T04:10:45;117.07;;;56.05;;
52738;SDS011;52466;40.122;18.318;2022-09-21T04:13:53;116.93;;;56.35;;
52738;SDS011;52466;40.122;18.318;2022-09-21T04:17:03;116.25;;;56.15;;
52738;SDS011;52466;40.122;18.318;2022-09-21T04:20:11;119.13;;;56.17;;
52738;SDS011;52466;40.122;18.318;2022-09-21T04:23:19;116.60;;;55.90;;
52738;SDS011;52466;40.122;18.318;2022-09-21T04:26:28;118.05;;;56.42;;
52738;SDS011;52466;40.122;18.318;2022-09-21T04:29:38;122.07;;;57.85;;
52738;SDS011;52466;40.122;18.318;2022-09-21T04:32:46;123.82;;;58.55;;
52738;SDS011;52466;40.122;18.318;2022-09-21T04:35:54;120.88;;;58.17;;
52738;SDS011;52466;40.122;18.318;2022-09-21T04:39:02;120.53;;;58.05;;
52738;SDS011;52466;40.122;18.318;2022-09-21T04:42:11;119.53;;;57.28;;
52738;SDS011;52466;40.122;18.318;2022-09-21T04:45:19;119.13;;;56.78;;
52738;SDS011;52466;40.122;18.318;2022-09-21T04:48:28;117.15;;;56.53;;
52738;SDS011;52466;40.122;18.318;2022-09-21T04:51:36;118.63;;;56.28;;
52738;SDS011;52466;40.122;18.318;2022-09-21T04:54:45;120.68;;;56.60;;
52738;SDS011;52466;40.122;18.318;2022-09-21T04:57:53;118.55;;;56.85;;
52738;SDS011;52466;40.122;18.318;2022-09-21T05:01:00;117.82;;;56.83;;
52738;SDS011;52466;40.122;18.318;2022-09-21T05:04:28;121.57;;;57.13;;
52738;SDS011;52466;40.122;18.318;2022-09-21T05:07:36;118.57;;;56.63;;
52738;SDS011;52466;40.122;18.318;2022-09-21T05:10:44;118.95;;;56.55;;
52738;SDS011;52466;40.122;18.318;2022-09-21T05:13:52;123.82;;;56.13;;
52738;SDS011;52466;40.122;18.318;2022-09-21T05:16:59;117.55;;;55.90;;
52738;SDS011;52466;40.122;18.318;2022-09-21T05:20:08;117.97;;;56.38;;
52738;SDS011;52466;40.122;18.318;2022-09-21T05:23:16;115.70;;;55.90;;
52738;SDS011;52466;40.122;18.318;2022-09-21T05:26:24;116.50;;;55.92;;
52738;SDS011;52466;40.122;18.318;2022-09-21T05:29:32;115.88;;;56.00;;
52738;SDS011;52466;40.122;18.318;2022-09-21T05:32:46;116.60;;;55.97;;
52738;SDS011;52466;40.122;18.318;2022-09-21T05:39:44;116.57;;;56.45;;
52738;SDS011;52466;40.122;18.318;2022-09-21T05:42:52;119.78;;;56.10;;
52738;SDS011;52466;40.122;18.318;2022-09-21T05:46:11;116.72;;;56.15;;
52738;SDS011;52466;40.122;18.318;2022-09-21T05:56:21;117.20;;;56.28;;
52738;SDS011;52466;40.122;18.318;2022-09-21T05:59:47;118.78;;;56.72;;
52738;SDS011;52466;40.122;18.318;2022-09-21T06:06:36;119.40;;;56.15;;
52738;SDS011;52466;40.122;18.318;2022-09-21T06:09:44;120.38;;;56.75;;
52738;SDS011;52466;40.122;18.318;2022-09-21T06:12:51;116.85;;;56.67;;
52738;SDS011;52466;40.122;18.318;2022-09-21T06:16:02;122.30;;;56.67;;
52738;SDS011;52466;40.122;18.318;2022-09-21T06:19:11;118.97;;;56.70;;
52738;SDS011;52466;40.122;18.318;2022-09-21T06:22:19;124.95;;;57.55;;
52738;SDS011;52466;40.122;18.318;2022-09-21T06:25:26;121.55;;;58.58;;
52738;SDS011;52466;40.122;18.318;2022-09-21T06:28:34;122.57;;;59.38;;
52738;SDS011;52466;40.122;18.318;2022-09-21T06:31:42;132.05;;;58.28;;
52738;SDS011;52466;40.122;18.318;2022-09-21T06:34:49;121.72;;;57.45;;
52738;SDS011;52466;40.122;18.318;2022-09-21T06:38:00;120.03;;;57.50;;
52738;SDS011;52466;40.122;18.318;2022-09-21T06:41:10;118.13;;;56.57;;
52738;SDS011;52466;40.122;18.318;2022-09-21T06:44:18;120.22;;;56.50;;
52738;SDS011;52466;40.122;18.318;2022-09-21T06:47:25;121.43;;;57.13;;
52738;SDS011;52466;40.122;18.318;2022-09-21T06:50:33;120.82;;;56.63;;
52738;SDS011;52466;40.122;18.318;2022-09-21T06:53:41;121.68;;;57.00;;
52738;SDS011;52466;40.122;18.318;2022-09-21T06:56:48;120.60;;;57.25;;
52738;SDS011;52466;40.122;18.318;2022-09-21T06:59:56;121.15;;;56.95;;
52738;SDS011;52466;40.122;18.318;2022-09-21T07:03:04;125.00;;;57.15;;
52738;SDS011;52466;40.122;18.318;2022-09-21T07:06:12;123.00;;;57.58;;
52738;SDS011;52466;40.122;18.318;2022-09-21T07:09:21;119.95;;;57.63;;
52738;SDS011;52466;40.122;18.318;2022-09-21T07:12:29;121.18;;;57.50;;
52738;SDS011;52466;40.122;18.318;2022-09-21T07:15:40;120.80;;;57.78;;
52738;SDS011;52466;40.122;18.318;2022-09-21T07:18:48;122.15;;;57.65;;
52738;SDS011;52466;40.122;18.318;2022-09-21T07:21:56;124.93;;;58.05;;
52738;SDS011;52466;40.122;18.318;2022-09-21T07:25:03;120.97;;;58.08;;
52738;SDS011;52466;40.122;18.318;2022-09-21T07:28:11;120.10;;;57.70;;
52738;SDS011;52466;40.122;18.318;2022-09-21T07:31:34;122.47;;;57.90;;
52738;SDS011;52466;40.122;18.318;2022-09-21T07:34:41;121.53;;;57.55;;
52738;SDS011;52466;40.122;18.318;2022-09-21T07:37:49;120.93;;;58.10;;
52738;SDS011;52466;40.122;18.318;2022-09-21T07:40:59;122.88;;;58.33;;
52738;SDS011;52466;40.122;18.318;2022-09-21T07:44:09;122.25;;;58.50;;
52738;SDS011;52466;40.122;18.318;2022-09-21T07:47:16;127.97;;;58.90;;
52738;SDS011;52466;40.122;18.318;2022-09-21T07:50:24;124.57;;;58.97;;
52738;SDS011;52466;40.122;18.318;2022-09-21T07:53:32;126.65;;;59.08;;
52738;SDS011;52466;40.122;18.318;2022-09-21T08:00:21;122.80;;;58.78;;
52738;SDS011;52466;40.122;18.318;2022-09-21T08:03:29;123.53;;;59.08;;
52738;SDS011;52466;40.122;18.318;2022-09-21T08:06:37;125.30;;;58.92;;
52738;SDS011;52466;40.122;18.318;2022-09-21T08:09:45;123.60;;;58.45;;
52738;SDS011;52466;40.122;18.318;2022-09-21T08:12:55;125.80;;;59.05;;
52738;SDS011;52466;40.122;18.318;2022-09-21T08:16:03;126.63;;;58.97;;
52738;SDS011;52466;40.122;18.318;2022-09-21T08:19:11;122.85;;;58.55;;
52738;SDS011;52466;40.122;18.318;2022-09-21T08:22:23;122.97;;;58.65;;
52738;SDS011;52466;40.122;18.318;2022-09-21T08:25:32;124.82;;;58.88;;
52738;SDS011;52466;40.122;18.318;2022-09-21T08:28:40;124.15;;;58.63;;
52738;SDS011;52466;40.122;18.318;2022-09-21T08:32:06;125.55;;;58.53;;
52738;SDS011;52466;40.122;18.318;2022-09-21T08:35:13;123.80;;;58.70;;
52738;SDS011;52466;40.122;18.318;2022-09-21T08:38:21;125.00;;;58.72;;
52738;SDS011;52466;40.122;18.318;2022-09-21T08:41:43;125.32;;;58.92;;
52738;SDS011;52466;40.122;18.318;2022-09-21T08:45:02;124.55;;;59.08;;
52738;SDS011;52466;40.122;18.318;2022-09-21T08:48:15;125.17;;;58.93;;
52738;SDS011;52466;40.122;18.318;2022-09-21T08:51:29;124.45;;;58.92;;
52738;SDS011;52466;40.122;18.318;2022-09-21T08:57:50;124.72;;;59.20;;
52738;SDS011;52466;40.122;18.318;2022-09-21T09:11:13;124.50;;;58.80;;
52738;SDS011;52466;40.122;18.318;2022-09-21T09:18:23;123.80;;;58.83;;
52738;SDS011;52466;40.122;18.318;2022-09-21T09:21:54;123.13;;;58.67;;
52738;SDS011;52466;40.122;18.318;2022-09-21T09:25:03;123.30;;;58.78;;
52738;SDS011;52466;40.122;18.318;2022-09-21T09:28:24;124.03;;;58.88;;
52738;SDS011;52466;40.122;18.318;2022-09-21T09:31:38;125.90;;;59.08;;
52738;SDS011;52466;40.122;18.318;2022-09-21T09:34:51;128.48;;;58.85;;
52738;SDS011;52466;40.122;18.318;2022-09-21T09:51:30;124.75;;;58.88;;
52738;SDS011;52466;40.122;18.318;2022-09-21T09:54:39;123.68;;;58.70;;
52738;SDS011;52466;40.122;18.318;2022-09-21T09:57:47;125.78;;;58.90;;
52738;SDS011;52466;40.122;18.318;2022-09-21T10:00:55;123.85;;;58.83;;
52738;SDS011;52466;40.122;18.318;2022-09-21T10:04:04;125.18;;;59.08;;
52738;SDS011;52466;40.122;18.318;2022-09-21T10:07:19;122.75;;;58.58;;
52738;SDS011;52466;40.122;18.318;2022-09-21T10:10:41;124.60;;;59.15;;
52738;SDS011;52466;40.122;18.318;2022-09-21T10:13:49;125.43;;;58.63;;
52738;SDS011;52466;40.122;18.318;2022-09-21T10:17:02;126.97;;;58.90;;
52738;SDS011;52466;40.122;18.318;2022-09-21T10:20:16;124.85;;;59.00;;
52738;SDS011;52466;40.122;18.318;2022-09-21T10:23:26;124.40;;;58.93;;
52738;SDS011;52466;40.122;18.318;2022-09-21T10:26:37;124.60;;;58.72;;
52738;SDS011;52466;40.122;18.318;2022-09-21T10:29:55;125.53;;;58.67;;
52738;SDS011;52466;40.122;18.318;2022-09-21T10:33:06;125.53;;;58.97;;
52738;SDS011;52466;40.122;18.318;2022-09-21T10:39:47;123.35;;;58.55;;
52738;SDS011;52466;40.122;18.318;2022-09-21T10:46:04;122.47;;;58.47;;
52738;SDS011;52466;40.122;18.318;2022-09-21T10:49:19;123.03;;;58.50;;
52738;SDS011;52466;40.122;18.318;2022-09-21T10:52:34;122.18;;;58.53;;
52738;SDS011;52466;40.122;18.318;2022-09-21T10:55:56;123.22;;;58.85;;
52738;SDS011;52466;40.122;18.318;2022-09-21T10:59:10;123.77;;;59.20;;
52738;SDS011;52466;40.122;18.318;2022-09-21T11:05:39;121.72;;;58.63;;
52738;SDS011;52466;40.122;18.318;2022-09-21T11:09:04;125.80;;;58.90;;
52738;SDS011;52466;40.122;18.318;2022-09-21T11:13:27;125.70;;;58.50;;
52738;SDS011;52466;40.122;18.318;2022-09-21T11:16:59;122.53;;;58.83;;
52738;SDS011;52466;40.122;18.318;2022-09-21T11:26:46;122.60;;;58.95;;
52738;SDS011;52466;40.122;18.318;2022-09-21T11:30:05;122.05;;;58.70;;
52738;SDS011;52466;40.122;18.318;2022-09-21T11:33:29;123.28;;;58.75;;
52738;SDS011;52466;40.122;18.318;2022-09-21T11:36:57;124.10;;;58.40;;
52738;SDS011;52466;40.122;18.318;2022-09-21T11:43:29;122.22;;;58.63;;
52738;SDS011;52466;40.122;18.318;2022-09-21T11:46:44;120.57;;;58.33;;
52738;SDS011;52466;40.122;18.318;2022-09-21T11:57:25;122.47;;;58.40;;
52738;SDS011;52466;40.122;18.318;2022-09-21T12:00:47;123.78;;;58.55;;
52738;SDS011;52466;40.122;18.318;2022-09-21T12:08:12;122.45;;;58.58;;
52738;SDS011;52466;40.122;18.318;2022-09-21T12:11:37;124.03;;;58.35;;
52738;SDS011;52466;40.122;18.318;2022-09-21T12:14:58;124.63;;;58.78;;
52738;SDS011;52466;40.122;18.318;2022-09-21T12:18:12;121.78;;;58.47;;
52738;SDS011;52466;40.122;18.318;2022-09-21T12:21:26;121.03;;;58.22;;
52738;SDS011;52466;40.122;18.318;2022-09-21T12:24:41;121.95;;;58.55;;
52738;SDS011;52466;40.122;18.318;2022-09-21T12:31:11;123.20;;;58.42;;
52738;SDS011;52466;40.122;18.318;2022-09-21T12:34:33;122.70;;;58.80;;
52738;SDS011;52466;40.122;18.318;2022-09-21T12:41:23;120.35;;;58.05;;
52738;SDS011;52466;40.122;18.318;2022-09-21T12:44:49;120.32;;;58.03;;
52738;SDS011;52466;40.122;18.318;2022-09-21T12:51:52;123.32;;;58.60;;
52738;SDS011;52466;40.122;18.318;2022-09-21T12:55:21;122.30;;;58.55;;
52738;SDS011;52466;40.122;18.318;2022-09-21T13:09:08;124.63;;;58.25;;
52738;SDS011;52466;40.122;18.318;2022-09-21T13:12:20;125.33;;;58.27;;
52738;SDS011;52466;40.122;18.318;2022-09-21T13:15:31;120.22;;;58.20;;
52738;SDS011;52466;40.122;18.318;2022-09-21T13:18:47;120.00;;;58.05;;
52738;SDS011;52466;40.122;18.318;2022-09-21T13:22:09;121.80;;;58.30;;
52738;SDS011;52466;40.122;18.318;2022-09-21T13:25:29;119.47;;;57.85;;
52738;SDS011;52466;40.122;18.318;2022-09-21T13:32:27;121.07;;;57.97;;
52738;SDS011;52466;40.122;18.318;2022-09-21T13:48:48;121.75;;;58.30;;
52738;SDS011;52466;40.122;18.318;2022-09-21T13:52:00;122.70;;;58.15;;
52738;SDS011;52466;40.122;18.318;2022-09-21T13:55:18;119.88;;;57.92;;
52738;SDS011;52466;40.122;18.318;2022-09-21T13:58:34;121.45;;;58.40;;
52738;SDS011;52466;40.122;18.318;2022-09-21T14:01:47;120.30;;;57.88;;
52738;SDS011;52466;40.122;18.318;2022-09-21T14:04:58;123.13;;;58.55;;
52738;SDS011;52466;40.122;18.318;2022-09-21T14:11:29;121.70;;;58.33;;
52738;SDS011;52466;40.122;18.318;2022-09-21T14:18:34;120.25;;;57.95;;
52738;SDS011;52466;40.122;18.318;2022-09-21T14:25:21;120.65;;;57.78;;
52738;SDS011;52466;40.122;18.318;2022-09-21T14:31:44;125.25;;;58.10;;
52738;SDS011;52466;40.122;18.318;2022-09-21T14:35:29;121.00;;;57.97;;
52738;SDS011;52466;40.122;18.318;2022-09-21T14:38:51;122.00;;;57.70;;
52738;SDS011;52466;40.122;18.318;2022-09-21T14:42:10;119.80;;;57.88;;
52738;SDS011;52466;40.122;18.318;2022-09-21T14:52:25;119.13;;;57.60;;
52738;SDS011;52466;40.122;18.318;2022-09-21T14:59:19;118.75;;;57.67;;
52738;SDS011;52466;40.122;18.318;2022-09-21T15:02:35;119.50;;;57.95;;
52738;SDS011;52466;40.122;18.318;2022-09-21T15:05:45;119.30;;;57.53;;
52738;SDS011;52466;40.122;18.318;2022-09-21T15:19:32;120.47;;;57.83;;
52738;SDS011;52466;40.122;18.318;2022-09-21T15:22:43;121.50;;;57.60;;
52738;SDS011;52466;40.122;18.318;2022-09-21T15:25:55;119.07;;;57.42;;
52738;SDS011;52466;40.122;18.318;2022-09-21T15:29:10;118.82;;;57.33;;
52738;SDS011;52466;40.122;18.318;2022-09-21T15:32:40;124.10;;;57.65;;
52738;SDS011;52466;40.122;18.318;2022-09-21T15:35:50;121.63;;;57.28;;
52738;SDS011;52466;40.122;18.318;2022-09-21T15:39:00;122.38;;;57.33;;
52738;SDS011;52466;40.122;18.318;2022-09-21T15:45:16;119.60;;;57.20;;
52738;SDS011;52466;40.122;18.318;2022-09-21T15:48:25;122.40;;;57.20;;
52738;SDS011;52466;40.122;18.318;2022-09-21T15:51:41;119.22;;;57.17;;
52738;SDS011;52466;40.122;18.318;2022-09-21T15:54:56;117.82;;;57.15;;
52738;SDS011;52466;40.122;18.318;2022-09-21T15:58:12;118.85;;;57.30;;
52738;SDS011;52466;40.122;18.318;2022-09-21T16:01:28;117.38;;;56.72;;
52738;SDS011;52466;40.122;18.318;2022-09-21T16:04:36;118.72;;;56.90;;
52738;SDS011;52466;40.122;18.318;2022-09-21T16:11:42;118.13;;;56.70;;
52738;SDS011;52466;40.122;18.318;2022-09-21T16:14:50;123.47;;;56.80;;
52738;SDS011;52466;40.122;18.318;2022-09-21T16:18:03;117.13;;;56.70;;
52738;SDS011;52466;40.122;18.318;2022-09-21T16:24:26;117.60;;;57.00;;
52738;SDS011;52466;40.122;18.318;2022-09-21T16:27:36;122.28;;;56.95;;
52738;SDS011;52466;40.122;18.318;2022-09-21T16:30:50;118.57;;;56.92;;
52738;SDS011;52466;40.122;18.318;2022-09-21T16:34:02;120.57;;;56.88;;
52738;SDS011;52466;40.122;18.318;2022-09-21T16:37:27;117.38;;;56.80;;
52738;SDS011;52466;40.122;18.318;2022-09-21T16:40:35;119.60;;;56.95;;
52738;SDS011;52466;40.122;18.318;2022-09-21T16:43:43;116.35;;;56.30;;
52738;SDS011;52466;40.122;18.318;2022-09-21T16:46:55;117.22;;;56.83;;
52738;SDS011;52466;40.122;18.318;2022-09-21T16:50:11;117.47;;;56.50;;
52738;SDS011;52466;40.122;18.318;2022-09-21T16:53:19;116.40;;;56.58;;
52738;SDS011;52466;40.122;18.318;2022-09-21T16:56:27;117.13;;;56.45;;
52738;SDS011;52466;40.122;18.318;2022-09-21T16:59:35;116.03;;;56.60;;
52738;SDS011;52466;40.122;18.318;2022-09-21T17:02:43;120.43;;;56.72;;
52738;SDS011;52466;40.122;18.318;2022-09-21T17:05:51;115.80;;;56.53;;
52738;SDS011;52466;40.122;18.318;2022-09-21T17:08:59;115.35;;;56.38;;
52738;SDS011;52466;40.122;18.318;2022-09-21T17:12:08;115.10;;;56.63;;
52738;SDS011;52466;40.122;18.318;2022-09-21T17:15:20;118.75;;;56.45;;
52738;SDS011;52466;40.122;18.318;2022-09-21T17:18:28;113.95;;;56.17;;
52738;SDS011;52466;40.122;18.318;2022-09-21T17:21:36;114.70;;;56.35;;
52738;SDS011;52466;40.122;18.318;2022-09-21T17:24:44;116.22;;;56.22;;
52738;SDS011;52466;40.122;18.318;2022-09-21T17:27:54;115.40;;;56.35;;
52738;SDS011;52466;40.122;18.318;2022-09-21T17:31:07;112.97;;;56.17;;
52738;SDS011;52466;40.122;18.318;2022-09-21T17:34:17;115.00;;;56.35;;
52738;SDS011;52466;40.122;18.318;2022-09-21T17:37:25;115.90;;;56.63;;
52738;SDS011;52466;40.122;18.318;2022-09-21T17:40:35;113.43;;;56.58;;
52738;SDS011;52466;40.122;18.318;2022-09-21T17:50:25;114.22;;;56.30;;
52738;SDS011;52466;40.122;18.318;2022-09-21T17:53:33;112.15;;;56.03;;
52738;SDS011;52466;40.122;18.318;2022-09-21T17:56:46;111.43;;;56.03;;
52738;SDS011;52466;40.122;18.318;2022-09-21T18:00:09;116.90;;;56.38;;
52738;SDS011;52466;40.122;18.318;2022-09-21T18:03:24;112.65;;;56.13;;
52738;SDS011;52466;40.122;18.318;2022-09-21T18:06:34;113.68;;;56.03;;
52738;SDS011;52466;40.122;18.318;2022-09-21T18:09:42;112.60;;;55.92;;
52738;SDS011;52466;40.122;18.318;2022-09-21T18:16:13;112.68;;;55.90;;
52738;SDS011;52466;40.122;18.318;2022-09-21T18:26:10;110.72;;;55.70;;
52738;SDS011;52466;40.122;18.318;2022-09-21T18:32:45;114.60;;;56.58;;
52738;SDS011;52466;40.122;18.318;2022-09-21T18:36:31;114.80;;;55.83;;
52738;SDS011;52466;40.122;18.318;2022-09-21T18:40:02;111.00;;;55.72;;
52738;SDS011;52466;40.122;18.318;2022-09-21T18:46:54;111.25;;;55.38;;
52738;SDS011;52466;40.122;18.318;2022-09-21T18:56:51;115.45;;;55.22;;
52738;SDS011;52466;40.122;18.318;2022-09-21T18:59:59;113.85;;;55.72;;
52738;SDS011;52466;40.122;18.318;2022-09-21T19:03:10;110.13;;;55.33;;
52738;SDS011;52466;40.122;18.318;2022-09-21T19:06:40;110.73;;;55.53;;
52738;SDS011;52466;40.122;18.318;2022-09-21T19:09:54;110.38;;;55.17;;
52738;SDS011;52466;40.122;18.318;2022-09-21T19:16:34;109.70;;;54.78;;
52738;SDS011;52466;40.122;18.318;2022-09-21T19:26:34;109.57;;;55.40;;
52738;SDS011;52466;40.122;18.318;2022-09-21T19:33:26;108.78;;;54.92;;
52738;SDS011;52466;40.122;18.318;2022-09-21T19:36:36;109.32;;;55.10;;
52738;SDS011;52466;40.122;18.318;2022-09-21T19:39:45;110.50;;;55.22;;
52738;SDS011;52466;40.122;18.318;2022-09-21T19:46:39;108.22;;;55.08;;
52738;SDS011;52466;40.122;18.318;2022-09-21T19:50:00;108.60;;;55.33;;
52738;SDS011;52466;40.122;18.318;2022-09-21T19:53:31;111.82;;;55.63;;
52738;SDS011;52466;40.122;18.318;2022-09-21T19:56:58;109.35;;;55.35;;
52738;SDS011;52466;40.122;18.318;2022-09-21T20:00:25;112.20;;;55.95;;
52738;SDS011;52466;40.122;18.318;2022-09-21T20:03:40;110.47;;;55.40;;
52738;SDS011;52466;40.122;18.318;2022-09-21T20:06:53;111.72;;;55.72;;
52738;SDS011;52466;40.122;18.318;2022-09-21T20:10:06;113.63;;;55.53;;
52738;SDS011;52466;40.122;18.318;2022-09-21T20:17:01;109.00;;;55.50;;
52738;SDS011;52466;40.122;18.318;2022-09-21T20:20:20;109.97;;;55.53;;
52738;SDS011;52466;40.122;18.318;2022-09-21T20:23:31;112.40;;;55.47;;
52738;SDS011;52466;40.122;18.318;2022-09-21T20:26:42;109.30;;;55.25;;
52738;SDS011;52466;40.122;18.318;2022-09-21T20:29:51;110.22;;;55.65;;
52738;SDS011;52466;40.122;18.318;2022-09-21T20:33:00;111.32;;;55.03;;
52738;SDS011;52466;40.122;18.318;2022-09-21T20:36:15;112.05;;;55.72;;
52738;SDS011;52466;40.122;18.318;2022-09-21T20:39:23;111.20;;;55.72;;
52738;SDS011;52466;40.122;18.318;2022-09-21T20:42:54;110.45;;;55.45;;
52738;SDS011;52466;40.122;18.318;2022-09-21T20:46:03;108.93;;;55.42;;
52738;SDS011;52466;40.122;18.318;2022-09-21T20:49:11;111.38;;;55.65;;
52738;SDS011;52466;40.122;18.318;2022-09-21T20:52:21;111.13;;;56.20;;
52738;SDS011;52466;40.122;18.318;2022-09-21T20:55:29;110.03;;;55.83;;
52738;SDS011;52466;40.122;18.318;2022-09-21T20:58:36;108.78;;;55.20;;
52738;SDS011;52466;40.122;18.318;2022-09-21T21:01:44;109.68;;;55.17;;
52738;SDS011;52466;40.122;18.318;2022-09-21T21:04:52;113.00;;;55.28;;
52738;SDS011;52466;40.122;18.318;2022-09-21T21:07:59;110.15;;;55.38;;
52738;SDS011;52466;40.122;18.318;2022-09-21T21:11:08;110.15;;;55.35;;
52738;SDS011;52466;40.122;18.318;2022-09-21T21:14:16;112.13;;;55.30;;
52738;SDS011;52466;40.122;18.318;2022-09-21T21:17:24;111.30;;;54.95;;
52738;SDS011;52466;40.122;18.318;2022-09-21T21:20:49;109.55;;;54.95;;
52738;SDS011;52466;40.122;18.318;2022-09-21T21:23:58;110.43;;;55.28;;
52738;SDS011;52466;40.122;18.318;2022-09-21T21:27:24;109.57;;;55.25;;
52738;SDS011;52466;40.122;18.318;2022-09-21T21:30:31;111.03;;;55.47;;
52738;SDS011;52466;40.122;18.318;2022-09-21T21:33:39;109.72;;;55.35;;
52738;SDS011;52466;40.122;18.318;2022-09-21T21:36:47;108.82;;;54.92;;
52738;SDS011;52466;40.122;18.318;2022-09-21T21:39:54;109.95;;;55.28;;
52738;SDS011;52466;40.122;18.318;2022-09-21T21:43:02;109.97;;;55.38;;
52738;SDS011;52466;40.122;18.318;2022-09-21T21:46:10;108.82;;;55.33;;
52738;SDS011;52466;40.122;18.318;2022-09-21T21:49:19;112.22;;;55.25;;
52738;SDS011;52466;40.122;18.318;2022-09-21T21:52:28;109.85;;;55.55;;
52738;SDS011;52466;40.122;18.318;2022-09-21T21:55:36;108.18;;;54.92;;
52738;SDS011;52466;40.122;18.318;2022-09-21T21:58:44;108.13;;;55.05;;
52738;SDS011;52466;40.122;18.318;2022-09-21T22:01:52;110.22;;;55.00;;
52738;SDS011;52466;40.122;18.318;2022-09-21T22:05:00;111.25;;;55.28;;
52738;SDS011;52466;40.122;18.318;2022-09-21T22:08:08;109.78;;;55.55;;
52738;SDS011;52466;40.122;18.318;2022-09-21T22:11:16;111.63;;;55.35;;
52738;SDS011;52466;40.122;18.318;2022-09-21T22:14:24;110.07;;;55.08;;
52738;SDS011;52466;40.122;18.318;2022-09-21T22:17:32;112.63;;;55.05;;
52738;SDS011;52466;40.122;18.318;2022-09-21T22:20:39;110.88;;;55.53;;
52738;SDS011;52466;40.122;18.318;2022-09-21T22:23:51;110.95;;;55.72;;
52738;SDS011;52466;40.122;18.318;2022-09-21T22:27:03;112.47;;;55.10;;